sensor_id;sensor_type;location;lat;lon;timestamp;pressure;altitude;pressure_sealevel;temperature;humidity
69980;BME280;57318;56.232;43.944;2023-10-13T00:01:21;97613.81;;;8.21;92.92
69980;BME280;57318;56.232;43.944;2023-10-13T00:03:46;97616.09;;;8.16;93.11
69980;BME280;57318;56.232;43.944;2023-10-13T00:06:12;97608.63;;;8.11;93.92
69980;BME280;57318;56.232;43.944;2023-10-13T00:08:38;97608.38;;;8.05;94.77
69980;BME280;57318;56.232;43.944;2023-10-13T00:11:05;97629.88;;;8.02;95.09
69980;BME280;57318;56.232;43.944;2023-10-13T00:13:31;97618.88;;;7.97;95.50
69980;BME280;57318;56.232;43.944;2023-10-13T00:16:22;97614.91;;;7.92;96.14
69980;BME280;57318;56.232;43.944;2023-10-13T00:18:52;97615.88;;;7.91;96.96
69980;BME280;57318;56.232;43.944;2023-10-13T00:21:24;97620.19;;;7.92;97.38
69980;BME280;57318;56.232;43.944;2023-10-13T00:24:00;97610.28;;;7.94;97.73
69980;BME280;57318;56.232;43.944;2023-10-13T00:26:32;97606.34;;;7.99;98.03
69980;BME280;57318;56.232;43.944;2023-10-13T00:29:02;97606.88;;;8.02;98.20
69980;BME280;57318;56.232;43.944;2023-10-13T00:31:42;97611.34;;;8.02;98.42
69980;BME280;57318;56.232;43.944;2023-10-13T00:34:09;97609.06;;;8.07;98.77
69980;BME280;57318;56.232;43.944;2023-10-13T00:36:50;97612.06;;;8.12;99.06
69980;BME280;57318;56.232;43.944;2023-10-13T00:39:36;97622.34;;;8.15;98.88
69980;BME280;57318;56.232;43.944;2023-10-13T00:42:14;97611.78;;;8.15;98.99
69980;BME280;57318;56.232;43.944;2023-10-13T00:44:45;97608.47;;;8.13;99.09
69980;BME280;57318;56.232;43.944;2023-10-13T00:47:16;97610.09;;;8.14;99.02
69980;BME280;57318;56.232;43.944;2023-10-13T00:50:07;97626.53;;;8.18;98.88
69980;BME280;57318;56.232;43.944;2023-10-13T00:52:37;97616.47;;;8.21;98.90
69980;BME280;57318;56.232;43.944;2023-10-13T00:55:07;97610.03;;;8.24;98.93
69980;BME280;57318;56.232;43.944;2023-10-13T00:57:35;97615.03;;;8.27;98.83
69980;BME280;57318;56.232;43.944;2023-10-13T01:00:01;97615.25;;;8.34;98.19
69980;BME280;57318;56.232;43.944;2023-10-13T01:02:38;97620.22;;;8.37;97.95
69980;BME280;57318;56.232;43.944;2023-10-13T01:05:05;97621.88;;;8.38;97.75
69980;BME280;57318;56.232;43.944;2023-10-13T01:07:32;97621.72;;;8.39;97.62
69980;BME280;57318;56.232;43.944;2023-10-13T01:10:03;97622.25;;;8.43;97.49
69980;BME280;57318;56.232;43.944;2023-10-13T01:12:32;97614.03;;;8.46;97.64
69980;BME280;57318;56.232;43.944;2023-10-13T01:14:58;97620.97;;;8.47;97.61
69980;BME280;57318;56.232;43.944;2023-10-13T01:17:25;97619.34;;;8.46;97.54
69980;BME280;57318;56.232;43.944;2023-10-13T01:19:57;97628.91;;;8.47;97.63
69980;BME280;57318;56.232;43.944;2023-10-13T01:22:24;97621.38;;;8.52;97.38
69980;BME280;57318;56.232;43.944;2023-10-13T01:24:50;97631.25;;;8.50;97.06
69980;BME280;57318;56.232;43.944;2023-10-13T01:27:16;97634.59;;;8.52;96.77
69980;BME280;57318;56.232;43.944;2023-10-13T01:29:46;97638.91;;;8.53;96.78
69980;BME280;57318;56.232;43.944;2023-10-13T01:32:24;97628.16;;;8.55;96.80
69980;BME280;57318;56.232;43.944;2023-10-13T01:34:50;97618.41;;;8.55;96.87
69980;BME280;57318;56.232;43.944;2023-10-13T01:37:21;97617.56;;;8.55;96.63
69980;BME280;57318;56.232;43.944;2023-10-13T01:39:47;97628.00;;;8.56;96.74
69980;BME280;57318;56.232;43.944;2023-10-13T01:42:17;97625.03;;;8.59;96.66
69980;BME280;57318;56.232;43.944;2023-10-13T01:44:47;97632.84;;;8.61;96.37
69980;BME280;57318;56.232;43.944;2023-10-13T01:47:13;97629.06;;;8.63;96.12
69980;BME280;57318;56.232;43.944;2023-10-13T01:49:41;97630.84;;;8.63;96.12
69980;BME280;57318;56.232;43.944;2023-10-13T01:52:14;97634.66;;;8.60;96.04
69980;BME280;57318;56.232;43.944;2023-10-13T01:54:44;97638.94;;;8.61;95.72
69980;BME280;57318;56.232;43.944;2023-10-13T01:57:11;97636.16;;;8.63;95.53
69980;BME280;57318;56.232;43.944;2023-10-13T01:59:47;97630.69;;;8.64;95.23
69980;BME280;57318;56.232;43.944;2023-10-13T02:02:14;97633.03;;;8.67;95.05
69980;BME280;57318;56.232;43.944;2023-10-13T02:04:41;97634.19;;;8.65;95.22
69980;BME280;57318;56.232;43.944;2023-10-13T02:07:15;97641.97;;;8.66;94.77
69980;BME280;57318;56.232;43.944;2023-10-13T02:09:42;97654.06;;;8.69;94.06
69980;BME280;57318;56.232;43.944;2023-10-13T02:12:10;97651.41;;;8.69;93.78
69980;BME280;57318;56.232;43.944;2023-10-13T02:14:37;97642.34;;;8.72;93.42
69980;BME280;57318;56.232;43.944;2023-10-13T02:17:05;97646.34;;;8.76;92.80
69980;BME280;57318;56.232;43.944;2023-10-13T02:19:42;97638.09;;;8.79;92.73
69980;BME280;57318;56.232;43.944;2023-10-13T02:22:32;97644.38;;;8.78;93.00
69980;BME280;57318;56.232;43.944;2023-10-13T02:24:58;97663.88;;;8.77;92.88
69980;BME280;57318;56.232;43.944;2023-10-13T02:27:34;97637.72;;;8.74;93.06
69980;BME280;57318;56.232;43.944;2023-10-13T02:30:07;97649.16;;;8.74;92.79
69980;BME280;57318;56.232;43.944;2023-10-13T02:32:38;97653.09;;;8.70;92.73
69980;BME280;57318;56.232;43.944;2023-10-13T02:35:09;97637.34;;;8.69;92.83
69980;BME280;57318;56.232;43.944;2023-10-13T02:37:41;97642.28;;;8.63;93.08
69980;BME280;57318;56.232;43.944;2023-10-13T02:40:13;97642.09;;;8.57;92.82
69980;BME280;57318;56.232;43.944;2023-10-13T02:42:39;97641.53;;;8.53;93.12
69980;BME280;57318;56.232;43.944;2023-10-13T02:45:05;97644.34;;;8.52;93.13
69980;BME280;57318;56.232;43.944;2023-10-13T02:47:33;97632.94;;;8.51;93.04
69980;BME280;57318;56.232;43.944;2023-10-13T02:49:58;97638.22;;;8.51;92.82
69980;BME280;57318;56.232;43.944;2023-10-13T02:52:26;97633.69;;;8.43;92.76
69980;BME280;57318;56.232;43.944;2023-10-13T02:54:52;97629.66;;;8.39;92.79
69980;BME280;57318;56.232;43.944;2023-10-13T02:57:18;97634.44;;;8.36;92.75
69980;BME280;57318;56.232;43.944;2023-10-13T02:59:45;97630.59;;;8.30;92.79
69980;BME280;57318;56.232;43.944;2023-10-13T03:02:16;97636.34;;;8.25;93.13
69980;BME280;57318;56.232;43.944;2023-10-13T03:04:52;97642.91;;;8.21;93.12
69980;BME280;57318;56.232;43.944;2023-10-13T03:07:47;97636.25;;;8.17;93.05
69980;BME280;57318;56.232;43.944;2023-10-13T03:10:15;97633.75;;;8.16;92.87
69980;BME280;57318;56.232;43.944;2023-10-13T03:12:44;97636.88;;;8.11;93.04
69980;BME280;57318;56.232;43.944;2023-10-13T03:15:14;97631.88;;;8.08;93.08
69980;BME280;57318;56.232;43.944;2023-10-13T03:17:44;97642.75;;;8.05;92.87
69980;BME280;57318;56.232;43.944;2023-10-13T03:20:11;97650.03;;;8.03;92.74
69980;BME280;57318;56.232;43.944;2023-10-13T03:22:38;97638.91;;;7.99;92.57
69980;BME280;57318;56.232;43.944;2023-10-13T03:25:04;97636.72;;;7.94;92.66
69980;BME280;57318;56.232;43.944;2023-10-13T03:27:32;97638.00;;;7.90;92.86
69980;BME280;57318;56.232;43.944;2023-10-13T03:30:16;97634.00;;;7.86;93.00
69980;BME280;57318;56.232;43.944;2023-10-13T03:32:43;97643.22;;;7.82;93.13
69980;BME280;57318;56.232;43.944;2023-10-13T03:35:20;97639.03;;;7.80;93.17
69980;BME280;57318;56.232;43.944;2023-10-13T03:37:56;97653.72;;;7.74;93.53
69980;BME280;57318;56.232;43.944;2023-10-13T03:40:23;97648.88;;;7.69;93.67
69980;BME280;57318;56.232;43.944;2023-10-13T03:42:52;97656.41;;;7.64;93.89
69980;BME280;57318;56.232;43.944;2023-10-13T03:45:24;97647.25;;;7.58;94.42
69980;BME280;57318;56.232;43.944;2023-10-13T03:47:52;97643.94;;;7.56;94.57
69980;BME280;57318;56.232;43.944;2023-10-13T03:50:18;97656.31;;;7.56;94.79
69980;BME280;57318;56.232;43.944;2023-10-13T03:52:55;97660.09;;;7.53;94.79
69980;BME280;57318;56.232;43.944;2023-10-13T03:55:24;97647.03;;;7.52;95.03
69980;BME280;57318;56.232;43.944;2023-10-13T03:57:53;97646.88;;;7.53;94.81
69980;BME280;57318;56.232;43.944;2023-10-13T04:00:22;97665.38;;;7.53;94.94
69980;BME280;57318;56.232;43.944;2023-10-13T04:02:52;97655.03;;;7.60;94.77
69980;BME280;57318;56.232;43.944;2023-10-13T04:05:42;97673.09;;;7.65;94.39
69980;BME280;57318;56.232;43.944;2023-10-13T04:08:08;97665.53;;;7.70;94.24
69980;BME280;57318;56.232;43.944;2023-10-13T04:10:48;97663.31;;;7.75;93.93
69980;BME280;57318;56.232;43.944;2023-10-13T04:13:14;97663.13;;;7.76;93.73
69980;BME280;57318;56.232;43.944;2023-10-13T04:15:58;97652.41;;;7.78;93.28
69980;BME280;57318;56.232;43.944;2023-10-13T04:18:40;97665.34;;;7.81;92.93
69980;BME280;57318;56.232;43.944;2023-10-13T04:21:29;97656.81;;;7.87;92.66
69980;BME280;57318;56.232;43.944;2023-10-13T04:24:13;97661.78;;;7.90;92.29
69980;BME280;57318;56.232;43.944;2023-10-13T04:26:48;97668.16;;;7.98;92.07
69980;BME280;57318;56.232;43.944;2023-10-13T04:29:33;97685.63;;;8.08;91.52
69980;BME280;57318;56.232;43.944;2023-10-13T04:32:17;97688.66;;;8.13;90.75
69980;BME280;57318;56.232;43.944;2023-10-13T04:35:05;97682.38;;;8.15;90.44
69980;BME280;57318;56.232;43.944;2023-10-13T04:37:36;97677.25;;;8.13;90.18
69980;BME280;57318;56.232;43.944;2023-10-13T04:40:14;97694.16;;;8.20;89.90
69980;BME280;57318;56.232;43.944;2023-10-13T04:42:42;97717.38;;;8.26;89.42
69980;BME280;57318;56.232;43.944;2023-10-13T04:45:24;97685.69;;;8.35;89.08
69980;BME280;57318;56.232;43.944;2023-10-13T04:47:55;97688.72;;;8.40;88.32
69980;BME280;57318;56.232;43.944;2023-10-13T04:50:46;97695.53;;;8.42;87.87
69980;BME280;57318;56.232;43.944;2023-10-13T04:53:18;97673.09;;;8.46;87.32
69980;BME280;57318;56.232;43.944;2023-10-13T04:55:57;97700.94;;;8.51;87.54
69980;BME280;57318;56.232;43.944;2023-10-13T04:58:25;97713.94;;;8.62;86.50
69980;BME280;57318;56.232;43.944;2023-10-13T05:01:01;97712.41;;;8.77;85.57
69980;BME280;57318;56.232;43.944;2023-10-13T05:03:45;97701.19;;;8.83;85.15
69980;BME280;57318;56.232;43.944;2023-10-13T05:06:29;97720.59;;;8.92;84.65
69980;BME280;57318;56.232;43.944;2023-10-13T05:09:12;97724.16;;;9.01;83.83
69980;BME280;57318;56.232;43.944;2023-10-13T05:11:56;97732.78;;;9.03;82.85
69980;BME280;57318;56.232;43.944;2023-10-13T05:14:40;97718.25;;;9.07;82.79
69980;BME280;57318;56.232;43.944;2023-10-13T05:17:25;97729.31;;;9.02;82.50
69980;BME280;57318;56.232;43.944;2023-10-13T05:20:09;97724.88;;;9.11;82.25
69980;BME280;57318;56.232;43.944;2023-10-13T05:22:54;97729.72;;;9.16;80.91
69980;BME280;57318;56.232;43.944;2023-10-13T05:25:38;97748.69;;;9.29;80.00
69980;BME280;57318;56.232;43.944;2023-10-13T05:28:30;97743.75;;;9.34;78.89
69980;BME280;57318;56.232;43.944;2023-10-13T05:31:14;97748.41;;;9.41;78.25
69980;BME280;57318;56.232;43.944;2023-10-13T05:33:58;97741.78;;;9.45;78.16
69980;BME280;57318;56.232;43.944;2023-10-13T05:36:43;97731.59;;;10.01;77.55
69980;BME280;57318;56.232;43.944;2023-10-13T05:39:27;97741.31;;;9.84;76.73
69980;BME280;57318;56.232;43.944;2023-10-13T05:42:11;97737.06;;;10.07;75.86
69980;BME280;57318;56.232;43.944;2023-10-13T05:44:55;97766.34;;;10.32;74.52
69980;BME280;57318;56.232;43.944;2023-10-13T05:47:33;97756.19;;;10.11;75.24
69980;BME280;57318;56.232;43.944;2023-10-13T05:50:10;97751.66;;;9.95;77.24
69980;BME280;57318;56.232;43.944;2023-10-13T05:52:39;97764.97;;;10.20;75.00
69980;BME280;57318;56.232;43.944;2023-10-13T05:55:26;97773.97;;;10.27;73.01
69980;BME280;57318;56.232;43.944;2023-10-13T05:58:10;97753.44;;;10.37;72.38
69980;BME280;57318;56.232;43.944;2023-10-13T06:00:54;97755.09;;;10.38;73.87
69980;BME280;57318;56.232;43.944;2023-10-13T06:03:39;97757.44;;;10.33;73.91
69980;BME280;57318;56.232;43.944;2023-10-13T06:06:23;97751.06;;;10.26;73.83
69980;BME280;57318;56.232;43.944;2023-10-13T06:09:07;97759.97;;;10.08;73.27
69980;BME280;57318;56.232;43.944;2023-10-13T06:11:53;97775.91;;;10.08;72.22
69980;BME280;57318;56.232;43.944;2023-10-13T06:14:37;97766.66;;;10.29;71.66
69980;BME280;57318;56.232;43.944;2023-10-13T06:17:22;97778.28;;;10.28;71.38
69980;BME280;57318;56.232;43.944;2023-10-13T06:20:07;97768.91;;;10.07;72.80
69980;BME280;57318;56.232;43.944;2023-10-13T06:22:51;97773.59;;;10.14;72.74
69980;BME280;57318;56.232;43.944;2023-10-13T06:25:35;97769.25;;;10.47;70.47
69980;BME280;57318;56.232;43.944;2023-10-13T06:28:20;97777.72;;;10.59;70.14
69980;BME280;57318;56.232;43.944;2023-10-13T06:31:05;97785.19;;;10.63;69.25
69980;BME280;57318;56.232;43.944;2023-10-13T06:33:37;97774.56;;;11.13;67.81
69980;BME280;57318;56.232;43.944;2023-10-13T06:36:10;97775.72;;;11.35;66.61
69980;BME280;57318;56.232;43.944;2023-10-13T06:38:37;97770.56;;;11.25;65.88
69980;BME280;57318;56.232;43.944;2023-10-13T06:41:03;97788.22;;;10.85;67.40
69980;BME280;57318;56.232;43.944;2023-10-13T06:43:33;97786.81;;;10.48;67.63
69980;BME280;57318;56.232;43.944;2023-10-13T06:46:06;97780.25;;;10.18;69.59
69980;BME280;57318;56.232;43.944;2023-10-13T06:48:33;97789.84;;;10.10;71.20
69980;BME280;57318;56.232;43.944;2023-10-13T06:51:01;97788.50;;;10.06;70.22
69980;BME280;57318;56.232;43.944;2023-10-13T06:53:48;97798.13;;;10.07;70.93
69980;BME280;57318;56.232;43.944;2023-10-13T06:56:14;97797.13;;;10.08;69.54
69980;BME280;57318;56.232;43.944;2023-10-13T06:58:48;97799.50;;;10.20;68.66
69980;BME280;57318;56.232;43.944;2023-10-13T07:01:14;97801.94;;;11.63;66.26
69980;BME280;57318;56.232;43.944;2023-10-13T07:03:48;97803.19;;;12.00;62.78
69980;BME280;57318;56.232;43.944;2023-10-13T07:06:27;97796.56;;;11.71;61.96
69980;BME280;57318;56.232;43.944;2023-10-13T07:08:53;97812.75;;;12.80;62.25
69980;BME280;57318;56.232;43.944;2023-10-13T07:11:24;97808.69;;;12.92;60.14
69980;BME280;57318;56.232;43.944;2023-10-13T07:14:02;97806.34;;;12.35;60.67
69980;BME280;57318;56.232;43.944;2023-10-13T07:17:00;97809.56;;;11.66;62.92
69980;BME280;57318;56.232;43.944;2023-10-13T07:19:27;97816.63;;;10.93;68.36
69980;BME280;57318;56.232;43.944;2023-10-13T07:21:59;97820.09;;;10.26;72.91
69980;BME280;57318;56.232;43.944;2023-10-13T07:24:29;97846.34;;;9.42;75.37
69980;BME280;57318;56.232;43.944;2023-10-13T07:27:00;97856.91;;;8.62;77.06
69980;BME280;57318;56.232;43.944;2023-10-13T07:29:31;97839.13;;;7.89;79.08
69980;BME280;57318;56.232;43.944;2023-10-13T07:32:01;97842.50;;;7.44;80.63
69980;BME280;57318;56.232;43.944;2023-10-13T07:34:38;97844.75;;;7.09;81.36
69980;BME280;57318;56.232;43.944;2023-10-13T07:37:05;97838.22;;;6.94;82.23
69980;BME280;57318;56.232;43.944;2023-10-13T07:39:38;97842.09;;;6.90;83.96
69980;BME280;57318;56.232;43.944;2023-10-13T07:42:05;97846.00;;;6.95;84.24
69980;BME280;57318;56.232;43.944;2023-10-13T07:44:34;97850.59;;;7.03;84.32
69980;BME280;57318;56.232;43.944;2023-10-13T07:47:01;97854.84;;;7.43;84.61
69980;BME280;57318;56.232;43.944;2023-10-13T07:49:33;97862.22;;;7.49;83.56
69980;BME280;57318;56.232;43.944;2023-10-13T07:52:07;97869.81;;;7.62;84.04
69980;BME280;57318;56.232;43.944;2023-10-13T07:54:56;97871.47;;;8.48;82.37
69980;BME280;57318;56.232;43.944;2023-10-13T07:57:37;97882.31;;;10.66;79.32
69980;BME280;57318;56.232;43.944;2023-10-13T08:00:19;97893.75;;;13.02;69.61
69980;BME280;57318;56.232;43.944;2023-10-13T08:03:14;97891.19;;;15.04;63.10
69980;BME280;57318;56.232;43.944;2023-10-13T08:05:41;97898.06;;;16.35;57.69
69980;BME280;57318;56.232;43.944;2023-10-13T08:08:33;97889.94;;;15.65;56.51
69980;BME280;57318;56.232;43.944;2023-10-13T08:11:14;97897.66;;;13.46;58.00
69980;BME280;57318;56.232;43.944;2023-10-13T08:13:53;97896.66;;;12.61;62.93
69980;BME280;57318;56.232;43.944;2023-10-13T08:16:23;97893.81;;;12.62;61.09
69980;BME280;57318;56.232;43.944;2023-10-13T08:18:54;97892.66;;;13.81;60.08
69980;BME280;57318;56.232;43.944;2023-10-13T08:21:21;97904.13;;;14.64;58.76
69980;BME280;57318;56.232;43.944;2023-10-13T08:23:50;97895.66;;;14.31;57.17
69980;BME280;57318;56.232;43.944;2023-10-13T08:26:20;97895.63;;;13.48;59.02
69980;BME280;57318;56.232;43.944;2023-10-13T08:29:02;97904.78;;;13.22;59.72
69980;BME280;57318;56.232;43.944;2023-10-13T08:31:48;97891.00;;;13.42;59.67
69980;BME280;57318;56.232;43.944;2023-10-13T08:34:34;97886.81;;;13.62;58.38
69980;BME280;57318;56.232;43.944;2023-10-13T08:37:09;97914.56;;;13.91;57.18
69980;BME280;57318;56.232;43.944;2023-10-13T08:39:48;97891.94;;;14.76;54.51
69980;BME280;57318;56.232;43.944;2023-10-13T08:42:43;97898.59;;;15.02;51.65
69980;BME280;57318;56.232;43.944;2023-10-13T08:45:13;97906.00;;;15.86;50.30
69980;BME280;57318;56.232;43.944;2023-10-13T08:47:49;97910.13;;;16.52;47.50
69980;BME280;57318;56.232;43.944;2023-10-13T08:56:09;97906.31;;;17.83;44.35
69980;BME280;57318;56.232;43.944;2023-10-13T08:58:46;97913.22;;;18.58;44.99
69980;BME280;57318;56.232;43.944;2023-10-13T09:01:23;97904.06;;;19.56;40.33
69980;BME280;57318;56.232;43.944;2023-10-13T09:04:08;97931.28;;;19.48;39.54
69980;BME280;57318;56.232;43.944;2023-10-13T09:06:47;97919.88;;;19.14;40.53
69980;BME280;57318;56.232;43.944;2023-10-13T09:09:23;97915.97;;;19.10;41.96
69980;BME280;57318;56.232;43.944;2023-10-13T09:11:55;97925.75;;;17.65;42.27
69980;BME280;57318;56.232;43.944;2023-10-13T09:14:40;97919.00;;;15.90;46.18
69980;BME280;57318;56.232;43.944;2023-10-13T09:17:26;97921.38;;;14.98;48.88
69980;BME280;57318;56.232;43.944;2023-10-13T09:20:00;97930.50;;;16.12;49.86
69980;BME280;57318;56.232;43.944;2023-10-13T09:22:45;97925.47;;;16.30;48.50
69980;BME280;57318;56.232;43.944;2023-10-13T09:25:23;97925.41;;;15.45;48.15
69980;BME280;57318;56.232;43.944;2023-10-13T09:27:50;97927.88;;;14.59;49.08
69980;BME280;57318;56.232;43.944;2023-10-13T09:30:19;97944.13;;;14.72;52.34
69980;BME280;57318;56.232;43.944;2023-10-13T09:33:02;97915.09;;;14.54;49.45
69980;BME280;57318;56.232;43.944;2023-10-13T09:35:31;97943.34;;;14.19;49.91
69980;BME280;57318;56.232;43.944;2023-10-13T09:38:00;97920.50;;;14.91;50.98
69980;BME280;57318;56.232;43.944;2023-10-13T09:40:28;97937.09;;;15.44;48.14
69980;BME280;57318;56.232;43.944;2023-10-13T09:43:12;97930.28;;;15.42;48.68
69980;BME280;57318;56.232;43.944;2023-10-13T09:45:41;97943.00;;;14.96;49.81
69980;BME280;57318;56.232;43.944;2023-10-13T09:48:28;97943.00;;;14.22;48.97
69980;BME280;57318;56.232;43.944;2023-10-13T09:51:02;97930.19;;;13.41;51.68
69980;BME280;57318;56.232;43.944;2023-10-13T09:53:31;97923.59;;;15.09;45.06
69980;BME280;57318;56.232;43.944;2023-10-13T09:56:06;97925.13;;;15.40;43.91
69980;BME280;57318;56.232;43.944;2023-10-13T09:58:50;97937.34;;;14.02;47.82
69980;BME280;57318;56.232;43.944;2023-10-13T10:01:24;97940.19;;;13.08;52.41
69980;BME280;57318;56.232;43.944;2023-10-13T10:04:10;97974.53;;;12.23;54.72
69980;BME280;57318;56.232;43.944;2023-10-13T10:06:54;97961.56;;;11.79;56.44
69980;BME280;57318;56.232;43.944;2023-10-13T10:09:27;97963.06;;;11.73;58.09
69980;BME280;57318;56.232;43.944;2023-10-13T10:17:17;97970.25;;;14.02;51.39
69980;BME280;57318;56.232;43.944;2023-10-13T10:19:49;97980.03;;;13.87;50.36
69980;BME280;57318;56.232;43.944;2023-10-13T10:22:34;97968.78;;;14.44;50.02
69980;BME280;57318;56.232;43.944;2023-10-13T10:25:03;97962.97;;;15.37;45.15
69980;BME280;57318;56.232;43.944;2023-10-13T10:27:33;97956.00;;;14.40;48.00
69980;BME280;57318;56.232;43.944;2023-10-13T10:30:00;97972.03;;;13.64;49.31
69980;BME280;57318;56.232;43.944;2023-10-13T10:32:37;97978.50;;;12.84;50.73
69980;BME280;57318;56.232;43.944;2023-10-13T10:35:08;97986.69;;;12.74;50.62
69980;BME280;57318;56.232;43.944;2023-10-13T10:37:36;97986.91;;;14.04;48.26
69980;BME280;57318;56.232;43.944;2023-10-13T10:40:08;97989.28;;;14.82;46.77
69980;BME280;57318;56.232;43.944;2023-10-13T10:42:34;97984.38;;;14.41;49.28
69980;BME280;57318;56.232;43.944;2023-10-13T10:44:59;97983.19;;;13.67;49.98
69980;BME280;57318;56.232;43.944;2023-10-13T10:47:34;97978.75;;;13.37;50.80
69980;BME280;57318;56.232;43.944;2023-10-13T10:50:04;97993.41;;;13.01;52.05
69980;BME280;57318;56.232;43.944;2023-10-13T10:52:34;97998.38;;;12.64;53.63
69980;BME280;57318;56.232;43.944;2023-10-13T10:55:05;97988.47;;;12.42;53.77
69980;BME280;57318;56.232;43.944;2023-10-13T10:57:36;98004.50;;;12.09;52.67
69980;BME280;57318;56.232;43.944;2023-10-13T11:00:19;98002.31;;;11.88;53.84
69980;BME280;57318;56.232;43.944;2023-10-13T11:02:57;98005.78;;;11.80;53.23
69980;BME280;57318;56.232;43.944;2023-10-13T11:05:23;98017.25;;;11.64;55.51
69980;BME280;57318;56.232;43.944;2023-10-13T11:07:58;98008.28;;;12.23;53.96
69980;BME280;57318;56.232;43.944;2023-10-13T11:10:23;98023.78;;;11.95;54.86
69980;BME280;57318;56.232;43.944;2023-10-13T11:12:58;98046.69;;;11.63;55.33
69980;BME280;57318;56.232;43.944;2023-10-13T11:15:47;98049.09;;;11.23;60.29
69980;BME280;57318;56.232;43.944;2023-10-13T11:18:14;98067.84;;;11.13;60.84
69980;BME280;57318;56.232;43.944;2023-10-13T11:20:49;98037.91;;;13.00;52.66
69980;BME280;57318;56.232;43.944;2023-10-13T11:23:20;98046.91;;;13.94;47.87
69980;BME280;57318;56.232;43.944;2023-10-13T11:26:00;98062.69;;;14.79;46.77
69980;BME280;57318;56.232;43.944;2023-10-13T11:28:26;98057.66;;;15.73;45.25
69980;BME280;57318;56.232;43.944;2023-10-13T11:30:55;98063.59;;;16.33;42.49
69980;BME280;57318;56.232;43.944;2023-10-13T11:33:26;98066.88;;;16.28;42.43
69980;BME280;57318;56.232;43.944;2023-10-13T11:35:57;98051.97;;;15.61;43.70
69980;BME280;57318;56.232;43.944;2023-10-13T11:41:01;98065.72;;;15.36;45.00
69980;BME280;57318;56.232;43.944;2023-10-13T11:43:43;98079.53;;;15.76;45.16
69980;BME280;57318;56.232;43.944;2023-10-13T11:46:12;98064.06;;;14.37;46.11
69980;BME280;57318;56.232;43.944;2023-10-13T11:48:42;98085.75;;;13.42;48.54
69980;BME280;57318;56.232;43.944;2023-10-13T11:51:09;98109.94;;;12.76;49.13
69980;BME280;57318;56.232;43.944;2023-10-13T11:53:43;98082.16;;;12.70;50.47
69980;BME280;57318;56.232;43.944;2023-10-13T11:56:27;98083.34;;;12.10;52.74
69980;BME280;57318;56.232;43.944;2023-10-13T11:58:53;98092.47;;;11.74;53.00
69980;BME280;57318;56.232;43.944;2023-10-13T12:01:19;98107.16;;;11.44;53.16
69980;BME280;57318;56.232;43.944;2023-10-13T12:03:46;98111.38;;;11.20;55.33
69980;BME280;57318;56.232;43.944;2023-10-13T12:06:32;98114.13;;;11.02;55.40
69980;BME280;57318;56.232;43.944;2023-10-13T12:09:10;98117.91;;;10.92;52.89
69980;BME280;57318;56.232;43.944;2023-10-13T12:11:42;98128.03;;;11.23;52.01
69980;BME280;57318;56.232;43.944;2023-10-13T12:14:08;98136.97;;;11.13;52.94
69980;BME280;57318;56.232;43.944;2023-10-13T12:16:46;98148.53;;;11.04;52.47
69980;BME280;57318;56.232;43.944;2023-10-13T12:19:16;98160.09;;;10.95;52.03
69980;BME280;57318;56.232;43.944;2023-10-13T12:21:43;98155.53;;;11.90;48.85
69980;BME280;57318;56.232;43.944;2023-10-13T12:24:10;98166.66;;;13.26;45.27
69980;BME280;57318;56.232;43.944;2023-10-13T12:26:57;98158.25;;;13.93;42.83
69980;BME280;57318;56.232;43.944;2023-10-13T12:29:23;98155.66;;;14.31;41.44
69980;BME280;57318;56.232;43.944;2023-10-13T12:31:54;98148.09;;;13.88;41.78
69980;BME280;57318;56.232;43.944;2023-10-13T12:34:46;98160.84;;;14.01;41.78
69980;BME280;57318;56.232;43.944;2023-10-13T12:37:26;98172.50;;;14.32;42.12
69980;BME280;57318;56.232;43.944;2023-10-13T12:40:08;98173.16;;;13.23;44.13
69980;BME280;57318;56.232;43.944;2023-10-13T12:42:52;98197.34;;;12.06;45.36
69980;BME280;57318;56.232;43.944;2023-10-13T12:45:40;98189.88;;;11.33;47.00
69980;BME280;57318;56.232;43.944;2023-10-13T12:48:29;98180.31;;;10.88;49.71
69980;BME280;57318;56.232;43.944;2023-10-13T12:51:15;98197.69;;;10.56;49.74
69980;BME280;57318;56.232;43.944;2023-10-13T12:54:00;98190.41;;;10.40;51.67
69980;BME280;57318;56.232;43.944;2023-10-13T12:56:52;98213.25;;;10.33;51.87
69980;BME280;57318;56.232;43.944;2023-10-13T12:59:24;98177.50;;;10.27;52.18
69980;BME280;57318;56.232;43.944;2023-10-13T13:01:53;98187.91;;;10.20;53.46
69980;BME280;57318;56.232;43.944;2023-10-13T13:04:19;98203.41;;;10.15;53.06
69980;BME280;57318;56.232;43.944;2023-10-13T13:06:50;98205.13;;;10.52;53.39
69980;BME280;57318;56.232;43.944;2023-10-13T13:09:16;98213.59;;;11.52;49.94
69980;BME280;57318;56.232;43.944;2023-10-13T13:11:54;98221.84;;;11.76;50.72
69980;BME280;57318;56.232;43.944;2023-10-13T13:14:26;98228.59;;;11.27;51.43
69980;BME280;57318;56.232;43.944;2023-10-13T13:16:58;98230.38;;;10.74;53.07
69980;BME280;57318;56.232;43.944;2023-10-13T13:19:34;98225.16;;;10.64;53.79
69980;BME280;57318;56.232;43.944;2023-10-13T13:22:07;98240.91;;;11.02;52.45
69980;BME280;57318;56.232;43.944;2023-10-13T13:24:44;98236.63;;;11.35;51.17
69980;BME280;57318;56.232;43.944;2023-10-13T13:27:12;98242.25;;;11.59;50.31
69980;BME280;57318;56.232;43.944;2023-10-13T13:29:45;98252.66;;;11.52;49.74
69980;BME280;57318;56.232;43.944;2023-10-13T13:32:11;98243.50;;;11.20;52.33
69980;BME280;57318;56.232;43.944;2023-10-13T13:34:44;98254.88;;;10.86;52.43
69980;BME280;57318;56.232;43.944;2023-10-13T13:37:10;98253.53;;;10.46;53.25
69980;BME280;57318;56.232;43.944;2023-10-13T13:39:38;98265.78;;;10.11;53.45
69980;BME280;57318;56.232;43.944;2023-10-13T13:42:10;98275.94;;;9.88;55.33
69980;BME280;57318;56.232;43.944;2023-10-13T13:44:36;98271.13;;;9.73;55.71
69980;BME280;57318;56.232;43.944;2023-10-13T13:47:02;98279.72;;;9.57;56.39